Meteo Giornale » Osservazioni meteo Austria » Linz-Hoersching

ore: 00:20 - Osservazioni Meteo Linz-Hoersching
Lat. 48° 14' N Lon. 14° 11' E Alt. 298 metri s.l.m.

nuvoloso_piovaschi Europe/Vienna

13 °C

Debole Rovescio di Pioggia

Temp. 24 Ore

7 °C

16 °C

Ovest

61.1 Km/h

Dew point 9 °C

Umidità 76 %

Visibilità  10 Km

Il sole sorge alle ore 06:52

Il sole tramonta alle ore 17:40

Data e Ora Cielo e Fenomeni T °C DP °C Um. % Pres. hPa Vis. km Vento km/h
Oggi h: 00:20 nuvoloso_piovaschi Debole Rovescio di Pioggia 13 9 76 1015 10 O 61.1
Ieri h: 23:50 nuvoloso_piovaschi Debole Rovescio di Pioggia 13 9 76 1014 10 O 59.2
Ieri h: 23:20 coperto_pioggia Pioggia Debole 13 9 76 1014 10 O 53.7
Ieri h: 22:50 nuvoloso_piovaschi Debole Rovescio di Pioggia 13 9 76 1014 10 O 46.3
Ieri h: 22:20 nuvoloso_piovaschi Debole Rovescio di Pioggia 14 8 67 1014 10 O/NO 46.3
Ieri h: 21:50 coperto Coperto 16 7 55 1013 10 O 57.3
Ieri h: 21:20 coperto_pioggia Pioggia Debole 15 7 58 1012 10 O 53.7
Ieri h: 20:50 molto_nuvoloso Molto Nuvoloso 16 6 51 1012 10 O 50
Ieri h: 20:20 molto_nuvoloso Molto Nuvoloso 16 6 51 1012 10 O 48.1
Ieri h: 19:50 molto_nuvoloso Molto Nuvoloso 16 7 55 1012 10 O 42.6
Ieri h: 19:20 molto_nuvoloso Molto Nuvoloso 16 8 58 1012 10 O 40.7
Ieri h: 18:50 molto_nuvoloso Molto Nuvoloso 16 8 58 1013 10 O 38.8
Ieri h: 18:20 molto_nuvoloso Molto Nuvoloso 16 8 58 1013 10 O 38.8
Ieri h: 17:50 molto_nuvoloso Molto Nuvoloso 16 8 58 1013 10 O 35.2
Ieri h: 17:20 molto_nuvoloso Molto Nuvoloso 13 8 71 1013 10 O 18.5
Ieri h: 16:50 molto_nuvoloso Molto Nuvoloso 11 7 76 1014 10 N 5.5
Ieri h: 16:20 molto_nuvoloso Molto Nuvoloso 11 7 76 1015 10 N 1.8
Ieri h: 15:50 molto_nuvoloso Molto Nuvoloso 11 7 76 1015 10 N 5.5
Ieri h: 15:20 molto_nuvoloso Molto Nuvoloso 11 7 76 1016 10 N 5.5
Ieri h: 14:50 molto_nuvoloso Molto Nuvoloso 11 7 76 1016 10 N 5.5
Ieri h: 14:20 molto_nuvoloso Molto Nuvoloso 11 7 76 1017 10 NO 13
Ieri h: 13:50 molto_nuvoloso Molto Nuvoloso 10 7 81 1017 10 O 13
Ieri h: 13:20 coperto_pioggia Pioggia Debole 10 7 81 1018 10 O 14.8
Ieri h: 12:50 coperto_pioggia Pioggia Debole 9 7 87 1019 10 O/NO 11.1
Ieri h: 12:20 coperto_pioggia Pioggia Debole 9 6 81 1020 10 O 14.8
Ieri h: 11:20 coperto_pioggia Pioggia Debole 9 7 87 1021 10 O 13
Ieri h: 10:50 coperto_pioggia Pioggia Debole 9 6 81 1022 10 O 14.8
Ieri h: 10:20 coperto_pioggia Pioggia Debole 9 6 81 1023 10 O 24
Ieri h: 09:50 coperto_pioggia Pioggia Debole 8 6 87 1023 10 O 25.9
Ieri h: 09:20 coperto_pioggia Pioggia Debole 8 6 87 1024 10 O 25.9
Ieri h: 08:50 coperto_pioggia Pioggia Debole 8 5 81 1024 10 O/SO 25.9
Ieri h: 08:20 coperto_pioggia Pioggia Debole 7 6 93 1025 10 O/SO 18.5
Ieri h: 07:50 coperto_pioggia Pioggia Debole 7 5 87 1025 10 O/SO 24
Ieri h: 07:20 coperto_pioggia Pioggia Debole 7 4 81 1025 10 O 25.9
Ieri h: 06:50 coperto_pioggia Pioggia Debole 7 5 87 1025 10 O/SO 20.3
Ieri h: 06:20 coperto_pioggia Pioggia Debole 7 5 87 1026 10 O 22.2
Ieri h: 04:50 coperto_pioggia Pioggia Debole 8 6 87 1026 10 O 29.6
Ieri h: 04:20 coperto_pioggia Pioggia Debole 8 5 81 1026 10 O 35.2
Ieri h: 03:50 coperto_pioggia Pioggia Debole 8 5 81 1025 10 O/NO 35.2
Ieri h: 03:20 coperto_pioggia Pioggia Debole 9 4 70 1025 10 O/NO 37
Ieri h: 02:50 molto_nuvoloso Molto Nuvoloso 10 4 66 1025 10 O 35.2
Ieri h: 02:20 coperto Coperto 10 3 61 1025 10 O 27.8
Ieri h: 01:50 molto_nuvoloso Molto Nuvoloso 10 3 61 1025 10 O 27.8
Ieri h: 01:20 molto_nuvoloso Molto Nuvoloso 10 1 53 1026 10 O/NO 31.5
Ieri h: 00:50 molto_nuvoloso Molto Nuvoloso 10 1 53 1025 10 NO 24
Ieri h: 00:20 coperto Coperto 9 1 57 1025 10 O/NO 22.2
Ieri h: 23:50 molto_nuvoloso Molto Nuvoloso 8 2 65 1024 10 O/NO 18.5